sensor_id;sensor_type;location;lat;lon;timestamp;P1;durP1;ratioP1;P2;durP2;ratioP2
32455;SDS011;18912;43.270;27.942;2023-11-19T06:07:29;23.73;;;12.95;;
32455;SDS011;18912;43.270;27.942;2023-11-19T06:09:55;21.40;;;10.13;;
32455;SDS011;18912;43.270;27.942;2023-11-19T06:12:20;22.57;;;11.53;;
32455;SDS011;18912;43.270;27.942;2023-11-19T06:14:46;17.55;;;8.68;;
32455;SDS011;18912;43.270;27.942;2023-11-19T06:17:12;16.27;;;8.93;;
32455;SDS011;18912;43.270;27.942;2023-11-19T06:19:37;20.02;;;10.98;;
32455;SDS011;18912;43.270;27.942;2023-11-19T06:22:03;22.43;;;11.20;;
32455;SDS011;18912;43.270;27.942;2023-11-19T06:24:29;22.40;;;10.43;;
32455;SDS011;18912;43.270;27.942;2023-11-19T06:26:54;20.75;;;10.57;;
32455;SDS011;18912;43.270;27.942;2023-11-19T06:29:20;23.30;;;10.77;;
32455;SDS011;18912;43.270;27.942;2023-11-19T06:31:45;21.83;;;11.70;;
32455;SDS011;18912;43.270;27.942;2023-11-19T06:34:13;25.67;;;11.02;;
32455;SDS011;18912;43.270;27.942;2023-11-19T06:36:39;20.00;;;10.77;;
32455;SDS011;18912;43.270;27.942;2023-11-19T06:39:05;22.93;;;10.50;;
32455;SDS011;18912;43.270;27.942;2023-11-19T06:41:31;21.10;;;10.43;;
32455;SDS011;18912;43.270;27.942;2023-11-19T06:43:56;16.58;;;9.60;;
32455;SDS011;18912;43.270;27.942;2023-11-19T06:46:22;18.70;;;10.25;;
32455;SDS011;18912;43.270;27.942;2023-11-19T06:48:48;19.43;;;10.23;;
32455;SDS011;18912;43.270;27.942;2023-11-19T06:51:13;21.30;;;9.73;;
32455;SDS011;18912;43.270;27.942;2023-11-19T06:53:39;19.23;;;10.18;;
32455;SDS011;18912;43.270;27.942;2023-11-19T06:56:24;21.02;;;10.60;;
32455;SDS011;18912;43.270;27.942;2023-11-19T06:58:50;22.67;;;11.68;;
32455;SDS011;18912;43.270;27.942;2023-11-19T07:01:16;18.77;;;9.88;;
32455;SDS011;18912;43.270;27.942;2023-11-19T07:03:44;21.38;;;9.63;;
32455;SDS011;18912;43.270;27.942;2023-11-19T07:06:10;19.85;;;10.20;;
32455;SDS011;18912;43.270;27.942;2023-11-19T07:08:35;21.05;;;10.55;;
32455;SDS011;18912;43.270;27.942;2023-11-19T07:11:01;25.27;;;11.25;;
32455;SDS011;18912;43.270;27.942;2023-11-19T07:13:28;22.63;;;11.50;;
32455;SDS011;18912;43.270;27.942;2023-11-19T07:15:55;25.03;;;10.43;;
32455;SDS011;18912;43.270;27.942;2023-11-19T07:18:21;26.10;;;12.15;;
32455;SDS011;18912;43.270;27.942;2023-11-19T07:20:47;16.35;;;9.00;;
32455;SDS011;18912;43.270;27.942;2023-11-19T07:25:44;21.98;;;10.55;;
32455;SDS011;18912;43.270;27.942;2023-11-19T07:28:12;22.73;;;12.13;;
32455;SDS011;18912;43.270;27.942;2023-11-19T07:30:38;19.50;;;10.95;;
32455;SDS011;18912;43.270;27.942;2023-11-19T07:33:04;21.75;;;11.57;;
32455;SDS011;18912;43.270;27.942;2023-11-19T07:35:29;28.17;;;13.40;;
32455;SDS011;18912;43.270;27.942;2023-11-19T07:37:59;21.80;;;11.73;;
32455;SDS011;18912;43.270;27.942;2023-11-19T07:40:25;21.10;;;12.15;;
32455;SDS011;18912;43.270;27.942;2023-11-19T07:42:51;21.35;;;12.02;;
32455;SDS011;18912;43.270;27.942;2023-11-19T07:45:17;24.17;;;11.60;;
32455;SDS011;18912;43.270;27.942;2023-11-19T07:47:43;24.27;;;11.70;;
32455;SDS011;18912;43.270;27.942;2023-11-19T07:50:12;21.65;;;11.70;;
32455;SDS011;18912;43.270;27.942;2023-11-19T07:52:42;25.45;;;11.27;;
32455;SDS011;18912;43.270;27.942;2023-11-19T07:55:07;19.27;;;10.93;;
32455;SDS011;18912;43.270;27.942;2023-11-19T07:57:34;24.42;;;11.85;;
32455;SDS011;18912;43.270;27.942;2023-11-19T07:59:59;21.70;;;12.07;;
32455;SDS011;18912;43.270;27.942;2023-11-19T08:02:26;24.35;;;12.85;;
32455;SDS011;18912;43.270;27.942;2023-11-19T08:04:52;25.13;;;12.60;;
32455;SDS011;18912;43.270;27.942;2023-11-19T08:07:20;22.83;;;12.23;;
32455;SDS011;18912;43.270;27.942;2023-11-19T08:09:47;22.50;;;10.57;;
32455;SDS011;18912;43.270;27.942;2023-11-19T08:12:13;19.40;;;11.20;;
32455;SDS011;18912;43.270;27.942;2023-11-19T08:14:40;19.42;;;10.85;;
32455;SDS011;18912;43.270;27.942;2023-11-19T08:17:06;19.85;;;11.40;;
32455;SDS011;18912;43.270;27.942;2023-11-19T08:19:32;20.63;;;11.23;;
32455;SDS011;18912;43.270;27.942;2023-11-19T08:21:57;22.50;;;11.63;;
32455;SDS011;18912;43.270;27.942;2023-11-19T08:24:23;19.50;;;10.23;;
32455;SDS011;18912;43.270;27.942;2023-11-19T08:26:49;19.70;;;10.55;;
32455;SDS011;18912;43.270;27.942;2023-11-19T08:29:14;20.63;;;10.67;;
32455;SDS011;18912;43.270;27.942;2023-11-19T08:31:40;21.67;;;10.53;;
32455;SDS011;18912;43.270;27.942;2023-11-19T08:34:06;18.80;;;9.80;;
32455;SDS011;18912;43.270;27.942;2023-11-19T08:36:34;18.27;;;10.70;;
32455;SDS011;18912;43.270;27.942;2023-11-19T08:39:00;17.70;;;9.20;;
32455;SDS011;18912;43.270;27.942;2023-11-19T08:41:25;23.70;;;10.05;;
32455;SDS011;18912;43.270;27.942;2023-11-19T08:46:17;21.42;;;9.80;;
32455;SDS011;18912;43.270;27.942;2023-11-19T08:48:43;17.77;;;10.33;;
32455;SDS011;18912;43.270;27.942;2023-11-19T08:51:08;20.27;;;9.60;;
32455;SDS011;18912;43.270;27.942;2023-11-19T08:53:34;17.93;;;9.70;;
32455;SDS011;18912;43.270;27.942;2023-11-19T08:55:59;19.95;;;10.52;;
32455;SDS011;18912;43.270;27.942;2023-11-19T08:58:26;20.20;;;10.02;;
32455;SDS011;18912;43.270;27.942;2023-11-19T09:00:52;21.57;;;10.13;;
32455;SDS011;18912;43.270;27.942;2023-11-19T09:03:18;18.33;;;9.77;;
32455;SDS011;18912;43.270;27.942;2023-11-19T09:05:43;19.17;;;10.13;;
32455;SDS011;18912;43.270;27.942;2023-11-19T09:08:10;16.88;;;9.68;;
32455;SDS011;18912;43.270;27.942;2023-11-19T09:10:37;15.73;;;8.90;;
32455;SDS011;18912;43.270;27.942;2023-11-19T09:13:02;18.63;;;10.52;;
32455;SDS011;18912;43.270;27.942;2023-11-19T09:15:29;18.83;;;9.07;;
32455;SDS011;18912;43.270;27.942;2023-11-19T09:17:54;17.50;;;9.65;;
32455;SDS011;18912;43.270;27.942;2023-11-19T09:20:20;19.00;;;9.50;;
32455;SDS011;18912;43.270;27.942;2023-11-19T09:22:45;24.80;;;9.83;;
32455;SDS011;18912;43.270;27.942;2023-11-19T09:25:11;21.17;;;10.30;;
32455;SDS011;18912;43.270;27.942;2023-11-19T09:27:37;17.75;;;8.98;;
32455;SDS011;18912;43.270;27.942;2023-11-19T09:30:02;16.67;;;8.73;;
32455;SDS011;18912;43.270;27.942;2023-11-19T09:32:29;16.20;;;9.05;;
32455;SDS011;18912;43.270;27.942;2023-11-19T09:34:54;16.20;;;8.90;;
32455;SDS011;18912;43.270;27.942;2023-11-19T09:37:20;20.67;;;9.50;;
32455;SDS011;18912;43.270;27.942;2023-11-19T09:39:45;19.50;;;9.40;;
32455;SDS011;18912;43.270;27.942;2023-11-19T09:42:11;26.20;;;9.67;;
32455;SDS011;18912;43.270;27.942;2023-11-19T09:44:37;16.20;;;8.63;;
32455;SDS011;18912;43.270;27.942;2023-11-19T09:47:06;16.20;;;8.93;;
32455;SDS011;18912;43.270;27.942;2023-11-19T09:49:33;17.50;;;9.25;;
32455;SDS011;18912;43.270;27.942;2023-11-19T09:52:00;16.83;;;9.48;;
32455;SDS011;18912;43.270;27.942;2023-11-19T09:54:27;13.45;;;8.13;;
32455;SDS011;18912;43.270;27.942;2023-11-19T09:56:53;13.15;;;8.02;;
32455;SDS011;18912;43.270;27.942;2023-11-19T09:59:24;13.20;;;8.27;;
32455;SDS011;18912;43.270;27.942;2023-11-19T10:04:16;14.80;;;8.70;;
32455;SDS011;18912;43.270;27.942;2023-11-19T10:06:44;14.05;;;7.90;;
32455;SDS011;18912;43.270;27.942;2023-11-19T10:09:11;15.20;;;7.70;;
32455;SDS011;18912;43.270;27.942;2023-11-19T10:11:37;15.52;;;8.15;;
32455;SDS011;18912;43.270;27.942;2023-11-19T10:14:03;13.63;;;7.67;;
32455;SDS011;18912;43.270;27.942;2023-11-19T10:16:29;16.17;;;9.03;;
32455;SDS011;18912;43.270;27.942;2023-11-19T10:18:58;12.65;;;7.32;;
32455;SDS011;18912;43.270;27.942;2023-11-19T10:21:24;13.20;;;8.00;;
32455;SDS011;18912;43.270;27.942;2023-11-19T10:23:50;13.27;;;7.57;;
32455;SDS011;18912;43.270;27.942;2023-11-19T10:26:17;12.98;;;7.80;;
32455;SDS011;18912;43.270;27.942;2023-11-19T10:28:45;15.73;;;8.07;;
32455;SDS011;18912;43.270;27.942;2023-11-19T10:31:15;13.20;;;8.60;;
32455;SDS011;18912;43.270;27.942;2023-11-19T10:33:42;17.48;;;8.45;;
32455;SDS011;18912;43.270;27.942;2023-11-19T10:36:10;18.10;;;9.00;;
32455;SDS011;18912;43.270;27.942;2023-11-19T10:38:37;14.88;;;8.77;;
32455;SDS011;18912;43.270;27.942;2023-11-19T10:41:03;19.27;;;8.88;;
32455;SDS011;18912;43.270;27.942;2023-11-19T10:43:30;14.65;;;9.15;;
32455;SDS011;18912;43.270;27.942;2023-11-19T10:46:09;15.55;;;9.25;;
32455;SDS011;18912;43.270;27.942;2023-11-19T10:48:36;12.63;;;7.53;;
32455;SDS011;18912;43.270;27.942;2023-11-19T10:51:01;13.63;;;7.40;;
32455;SDS011;18912;43.270;27.942;2023-11-19T10:53:32;10.98;;;7.20;;
32455;SDS011;18912;43.270;27.942;2023-11-19T10:56:01;12.02;;;7.20;;
32455;SDS011;18912;43.270;27.942;2023-11-19T10:58:29;11.45;;;6.82;;
32455;SDS011;18912;43.270;27.942;2023-11-19T11:01:01;13.23;;;6.53;;
32455;SDS011;18912;43.270;27.942;2023-11-19T11:03:29;14.90;;;6.68;;
32455;SDS011;18912;43.270;27.942;2023-11-19T11:06:04;9.93;;;6.33;;
32455;SDS011;18912;43.270;27.942;2023-11-19T11:08:30;10.85;;;6.95;;
32455;SDS011;18912;43.270;27.942;2023-11-19T11:10:56;9.80;;;6.57;;
32455;SDS011;18912;43.270;27.942;2023-11-19T11:13:26;14.20;;;6.85;;
32455;SDS011;18912;43.270;27.942;2023-11-19T11:15:56;15.38;;;6.95;;
32455;SDS011;18912;43.270;27.942;2023-11-19T11:18:26;11.82;;;7.13;;
32455;SDS011;18912;43.270;27.942;2023-11-19T11:20:52;12.82;;;7.28;;
32455;SDS011;18912;43.270;27.942;2023-11-19T11:29:09;12.10;;;7.20;;
32455;SDS011;18912;43.270;27.942;2023-11-19T11:40:03;14.13;;;7.22;;
32455;SDS011;18912;43.270;27.942;2023-11-19T11:42:38;10.57;;;6.80;;
32455;SDS011;18912;43.270;27.942;2023-11-19T11:45:10;13.05;;;8.05;;
32455;SDS011;18912;43.270;27.942;2023-11-19T11:50:14;14.02;;;8.23;;
32455;SDS011;18912;43.270;27.942;2023-11-19T11:55:28;14.23;;;8.15;;
32455;SDS011;18912;43.270;27.942;2023-11-19T11:58:02;15.60;;;7.35;;
32455;SDS011;18912;43.270;27.942;2023-11-19T12:02:59;15.87;;;8.57;;
32455;SDS011;18912;43.270;27.942;2023-11-19T12:05:25;16.10;;;8.20;;
32455;SDS011;18912;43.270;27.942;2023-11-19T12:08:10;15.73;;;8.82;;
32455;SDS011;18912;43.270;27.942;2023-11-19T12:10:52;16.00;;;9.57;;
32455;SDS011;18912;43.270;27.942;2023-11-19T12:13:19;13.82;;;8.32;;
32455;SDS011;18912;43.270;27.942;2023-11-19T12:18:28;16.33;;;8.73;;
32455;SDS011;18912;43.270;27.942;2023-11-19T12:20:55;17.08;;;9.40;;
32455;SDS011;18912;43.270;27.942;2023-11-19T12:23:21;18.25;;;9.50;;
32455;SDS011;18912;43.270;27.942;2023-11-19T12:25:47;17.70;;;9.93;;
32455;SDS011;18912;43.270;27.942;2023-11-19T12:28:13;13.97;;;8.27;;
32455;SDS011;18912;43.270;27.942;2023-11-19T12:30:39;24.15;;;10.90;;
32455;SDS011;18912;43.270;27.942;2023-11-19T12:33:08;16.85;;;10.13;;
32455;SDS011;18912;43.270;27.942;2023-11-19T12:35:46;16.98;;;9.52;;
32455;SDS011;18912;43.270;27.942;2023-11-19T12:38:19;10.23;;;6.60;;
32455;SDS011;18912;43.270;27.942;2023-11-19T12:41:04;17.65;;;9.68;;
32455;SDS011;18912;43.270;27.942;2023-11-19T12:43:33;19.20;;;9.98;;
32455;SDS011;18912;43.270;27.942;2023-11-19T12:48:45;17.58;;;9.55;;
32455;SDS011;18912;43.270;27.942;2023-11-19T12:51:12;18.23;;;10.05;;
32455;SDS011;18912;43.270;27.942;2023-11-19T12:56:32;22.02;;;10.55;;
32455;SDS011;18912;43.270;27.942;2023-11-19T12:59:01;15.93;;;9.40;;
32455;SDS011;18912;43.270;27.942;2023-11-19T13:01:36;16.95;;;9.90;;
32455;SDS011;18912;43.270;27.942;2023-11-19T13:04:15;19.40;;;10.30;;
32455;SDS011;18912;43.270;27.942;2023-11-19T13:06:47;20.73;;;10.48;;
32455;SDS011;18912;43.270;27.942;2023-11-19T13:09:25;16.77;;;9.85;;
32455;SDS011;18912;43.270;27.942;2023-11-19T13:11:52;20.50;;;11.65;;
32455;SDS011;18912;43.270;27.942;2023-11-19T13:14:19;27.08;;;11.43;;
32455;SDS011;18912;43.270;27.942;2023-11-19T13:16:45;19.17;;;11.15;;
32455;SDS011;18912;43.270;27.942;2023-11-19T13:19:12;21.48;;;11.63;;
32455;SDS011;18912;43.270;27.942;2023-11-19T13:21:38;19.08;;;10.70;;
32455;SDS011;18912;43.270;27.942;2023-11-19T13:24:07;21.70;;;10.95;;
32455;SDS011;18912;43.270;27.942;2023-11-19T13:26:33;19.52;;;10.75;;
32455;SDS011;18912;43.270;27.942;2023-11-19T13:31:25;19.90;;;11.20;;
32455;SDS011;18912;43.270;27.942;2023-11-19T13:33:51;25.30;;;11.45;;
32455;SDS011;18912;43.270;27.942;2023-11-19T13:36:16;18.43;;;10.50;;
32455;SDS011;18912;43.270;27.942;2023-11-19T13:38:42;20.10;;;11.00;;
32455;SDS011;18912;43.270;27.942;2023-11-19T13:41:09;22.45;;;11.43;;
32455;SDS011;18912;43.270;27.942;2023-11-19T13:43:36;19.40;;;10.82;;
32455;SDS011;18912;43.270;27.942;2023-11-19T13:46:02;23.40;;;12.98;;
32455;SDS011;18912;43.270;27.942;2023-11-19T13:48:28;21.70;;;12.07;;
32455;SDS011;18912;43.270;27.942;2023-11-19T13:50:54;25.10;;;11.93;;
32455;SDS011;18912;43.270;27.942;2023-11-19T13:53:20;23.25;;;12.48;;
32455;SDS011;18912;43.270;27.942;2023-11-19T13:55:46;21.75;;;11.75;;
32455;SDS011;18912;43.270;27.942;2023-11-19T13:58:11;26.97;;;12.83;;
32455;SDS011;18912;43.270;27.942;2023-11-19T14:00:37;21.07;;;11.50;;
32455;SDS011;18912;43.270;27.942;2023-11-19T14:03:02;27.30;;;12.05;;
32455;SDS011;18912;43.270;27.942;2023-11-19T14:05:28;26.27;;;13.27;;
32455;SDS011;18912;43.270;27.942;2023-11-19T14:07:53;20.67;;;11.07;;
32455;SDS011;18912;43.270;27.942;2023-11-19T14:10:21;23.02;;;12.65;;
32455;SDS011;18912;43.270;27.942;2023-11-19T14:12:47;27.05;;;12.25;;
32455;SDS011;18912;43.270;27.942;2023-11-19T14:15:12;23.20;;;12.73;;
32455;SDS011;18912;43.270;27.942;2023-11-19T14:17:38;28.63;;;13.13;;
32455;SDS011;18912;43.270;27.942;2023-11-19T14:20:04;24.48;;;12.63;;
32455;SDS011;18912;43.270;27.942;2023-11-19T14:22:45;28.73;;;12.75;;
32455;SDS011;18912;43.270;27.942;2023-11-19T14:25:13;23.67;;;12.30;;
32455;SDS011;18912;43.270;27.942;2023-11-19T14:27:40;24.05;;;11.95;;
32455;SDS011;18912;43.270;27.942;2023-11-19T14:30:08;24.77;;;12.10;;
32455;SDS011;18912;43.270;27.942;2023-11-19T14:32:40;24.98;;;13.40;;
32455;SDS011;18912;43.270;27.942;2023-11-19T14:35:10;24.30;;;11.35;;
32455;SDS011;18912;43.270;27.942;2023-11-19T14:37:36;24.00;;;12.57;;
32455;SDS011;18912;43.270;27.942;2023-11-19T14:40:02;20.80;;;11.43;;
32455;SDS011;18912;43.270;27.942;2023-11-19T14:42:33;23.35;;;12.52;;
32455;SDS011;18912;43.270;27.942;2023-11-19T14:44:59;22.10;;;12.03;;
32455;SDS011;18912;43.270;27.942;2023-11-19T14:47:24;21.73;;;11.20;;
32455;SDS011;18912;43.270;27.942;2023-11-19T14:49:50;23.83;;;12.07;;
32455;SDS011;18912;43.270;27.942;2023-11-19T14:52:16;24.77;;;12.73;;
32455;SDS011;18912;43.270;27.942;2023-11-19T14:54:42;25.13;;;12.57;;
32455;SDS011;18912;43.270;27.942;2023-11-19T14:57:07;22.87;;;11.97;;
32455;SDS011;18912;43.270;27.942;2023-11-19T14:59:33;23.63;;;12.30;;
32455;SDS011;18912;43.270;27.942;2023-11-19T15:01:59;22.63;;;11.15;;
32455;SDS011;18912;43.270;27.942;2023-11-19T15:04:26;20.92;;;11.75;;
32455;SDS011;18912;43.270;27.942;2023-11-19T15:06:52;24.73;;;12.80;;
32455;SDS011;18912;43.270;27.942;2023-11-19T15:09:17;22.60;;;11.25;;
32455;SDS011;18912;43.270;27.942;2023-11-19T15:14:11;27.15;;;12.25;;
32455;SDS011;18912;43.270;27.942;2023-11-19T15:16:40;25.20;;;12.43;;
32455;SDS011;18912;43.270;27.942;2023-11-19T15:19:06;23.45;;;12.45;;
32455;SDS011;18912;43.270;27.942;2023-11-19T15:21:33;18.83;;;11.05;;
32455;SDS011;18912;43.270;27.942;2023-11-19T15:23:59;28.70;;;12.95;;
32455;SDS011;18912;43.270;27.942;2023-11-19T15:26:24;25.20;;;12.83;;
32455;SDS011;18912;43.270;27.942;2023-11-19T15:28:50;26.08;;;12.82;;
32455;SDS011;18912;43.270;27.942;2023-11-19T15:31:20;24.58;;;12.52;;
32455;SDS011;18912;43.270;27.942;2023-11-19T15:33:46;24.70;;;12.33;;
32455;SDS011;18912;43.270;27.942;2023-11-19T15:36:12;25.48;;;11.35;;
32455;SDS011;18912;43.270;27.942;2023-11-19T15:38:37;24.57;;;12.63;;
32455;SDS011;18912;43.270;27.942;2023-11-19T15:41:03;26.20;;;12.53;;
32455;SDS011;18912;43.270;27.942;2023-11-19T15:43:30;25.45;;;12.18;;
32455;SDS011;18912;43.270;27.942;2023-11-19T15:45:55;26.83;;;12.93;;
32455;SDS011;18912;43.270;27.942;2023-11-19T15:48:21;20.55;;;10.88;;
32455;SDS011;18912;43.270;27.942;2023-11-19T15:50:47;25.90;;;12.27;;
32455;SDS011;18912;43.270;27.942;2023-11-19T15:53:12;23.57;;;11.60;;
32455;SDS011;18912;43.270;27.942;2023-11-19T15:55:38;26.67;;;12.60;;
32455;SDS011;18912;43.270;27.942;2023-11-19T15:58:03;26.80;;;13.43;;
32455;SDS011;18912;43.270;27.942;2023-11-19T16:00:29;23.43;;;11.87;;
32455;SDS011;18912;43.270;27.942;2023-11-19T16:02:55;27.70;;;13.07;;
32455;SDS011;18912;43.270;27.942;2023-11-19T16:05:21;23.48;;;12.65;;
32455;SDS011;18912;43.270;27.942;2023-11-19T16:07:48;26.17;;;12.52;;
32455;SDS011;18912;43.270;27.942;2023-11-19T16:10:15;22.48;;;11.65;;
32455;SDS011;18912;43.270;27.942;2023-11-19T16:12:40;24.60;;;12.93;;
32455;SDS011;18912;43.270;27.942;2023-11-19T16:15:06;26.65;;;13.70;;
32455;SDS011;18912;43.270;27.942;2023-11-19T16:17:35;27.77;;;14.13;;
32455;SDS011;18912;43.270;27.942;2023-11-19T16:20:01;24.60;;;13.10;;
32455;SDS011;18912;43.270;27.942;2023-11-19T16:22:31;27.77;;;13.15;;
32455;SDS011;18912;43.270;27.942;2023-11-19T16:24:57;27.05;;;12.82;;
32455;SDS011;18912;43.270;27.942;2023-11-19T16:27:23;24.83;;;12.70;;
32455;SDS011;18912;43.270;27.942;2023-11-19T16:32:15;26.95;;;13.98;;
32455;SDS011;18912;43.270;27.942;2023-11-19T16:34:40;25.60;;;13.27;;
32455;SDS011;18912;43.270;27.942;2023-11-19T16:37:10;24.45;;;12.10;;
32455;SDS011;18912;43.270;27.942;2023-11-19T16:39:35;22.98;;;12.63;;
32455;SDS011;18912;43.270;27.942;2023-11-19T16:42:01;32.73;;;12.83;;
32455;SDS011;18912;43.270;27.942;2023-11-19T16:44:26;24.43;;;11.87;;
32455;SDS011;18912;43.270;27.942;2023-11-19T16:46:52;23.53;;;12.70;;
32455;SDS011;18912;43.270;27.942;2023-11-19T16:49:17;23.80;;;12.37;;
32455;SDS011;18912;43.270;27.942;2023-11-19T16:51:46;24.27;;;12.43;;
32455;SDS011;18912;43.270;27.942;2023-11-19T16:54:12;24.00;;;12.10;;
32455;SDS011;18912;43.270;27.942;2023-11-19T16:56:38;25.35;;;12.10;;
32455;SDS011;18912;43.270;27.942;2023-11-19T16:59:06;25.67;;;12.90;;
32455;SDS011;18912;43.270;27.942;2023-11-19T17:01:32;28.98;;;12.45;;
32455;SDS011;18912;43.270;27.942;2023-11-19T17:03:58;30.67;;;12.75;;
32455;SDS011;18912;43.270;27.942;2023-11-19T17:06:23;27.50;;;14.93;;
32455;SDS011;18912;43.270;27.942;2023-11-19T17:08:49;31.90;;;13.30;;
32455;SDS011;18912;43.270;27.942;2023-11-19T17:11:14;28.83;;;14.07;;
32455;SDS011;18912;43.270;27.942;2023-11-19T17:13:40;27.27;;;14.23;;
32455;SDS011;18912;43.270;27.942;2023-11-19T17:16:05;25.93;;;13.70;;
32455;SDS011;18912;43.270;27.942;2023-11-19T17:18:32;24.08;;;12.65;;
32455;SDS011;18912;43.270;27.942;2023-11-19T17:20:58;25.25;;;13.63;;
32455;SDS011;18912;43.270;27.942;2023-11-19T17:23:25;24.77;;;13.20;;
32455;SDS011;18912;43.270;27.942;2023-11-19T17:25:51;26.52;;;14.20;;
32455;SDS011;18912;43.270;27.942;2023-11-19T17:28:17;27.63;;;14.70;;
32455;SDS011;18912;43.270;27.942;2023-11-19T17:30:43;34.77;;;16.73;;
32455;SDS011;18912;43.270;27.942;2023-11-19T17:33:09;29.67;;;15.35;;
32455;SDS011;18912;43.270;27.942;2023-11-19T17:35:35;31.88;;;16.67;;
32455;SDS011;18912;43.270;27.942;2023-11-19T17:38:01;36.17;;;17.75;;
32455;SDS011;18912;43.270;27.942;2023-11-19T17:40:26;34.75;;;16.95;;
32455;SDS011;18912;43.270;27.942;2023-11-19T17:42:52;30.35;;;15.18;;
32455;SDS011;18912;43.270;27.942;2023-11-19T17:47:44;31.55;;;15.02;;
32455;SDS011;18912;43.270;27.942;2023-11-19T17:50:10;30.20;;;15.20;;
32455;SDS011;18912;43.270;27.942;2023-11-19T17:52:36;31.83;;;15.45;;
32455;SDS011;18912;43.270;27.942;2023-11-19T17:55:02;31.00;;;15.20;;
32455;SDS011;18912;43.270;27.942;2023-11-19T17:57:30;31.50;;;15.48;;
32455;SDS011;18912;43.270;27.942;2023-11-19T17:59:56;29.23;;;14.50;;
32455;SDS011;18912;43.270;27.942;2023-11-19T18:02:22;33.88;;;16.92;;
32455;SDS011;18912;43.270;27.942;2023-11-19T18:04:48;26.52;;;14.27;;
32455;SDS011;18912;43.270;27.942;2023-11-19T18:07:14;37.75;;;18.35;;
32455;SDS011;18912;43.270;27.942;2023-11-19T18:09:42;28.77;;;15.50;;
32455;SDS011;18912;43.270;27.942;2023-11-19T18:12:08;29.98;;;14.70;;
32455;SDS011;18912;43.270;27.942;2023-11-19T18:14:38;29.92;;;14.52;;
32455;SDS011;18912;43.270;27.942;2023-11-19T18:17:04;34.60;;;17.98;;
32455;SDS011;18912;43.270;27.942;2023-11-19T18:19:30;49.97;;;22.08;;
32455;SDS011;18912;43.270;27.942;2023-11-19T18:21:59;47.55;;;21.10;;
32455;SDS011;18912;43.270;27.942;2023-11-19T18:24:25;48.00;;;19.73;;
32455;SDS011;18912;43.270;27.942;2023-11-19T18:29:16;43.67;;;22.23;;
32455;SDS011;18912;43.270;27.942;2023-11-19T18:31:42;47.95;;;22.33;;
32455;SDS011;18912;43.270;27.942;2023-11-19T18:36:37;40.65;;;20.42;;
32455;SDS011;18912;43.270;27.942;2023-11-19T18:39:06;47.97;;;24.10;;
32455;SDS011;18912;43.270;27.942;2023-11-19T18:41:35;75.15;;;35.45;;
32455;SDS011;18912;43.270;27.942;2023-11-19T18:44:01;89.20;;;41.38;;
32455;SDS011;18912;43.270;27.942;2023-11-19T18:46:27;80.22;;;37.45;;
32455;SDS011;18912;43.270;27.942;2023-11-19T18:48:53;77.03;;;38.22;;
32455;SDS011;18912;43.270;27.942;2023-11-19T18:51:19;63.88;;;32.70;;
32455;SDS011;18912;43.270;27.942;2023-11-19T18:53:45;64.20;;;32.75;;
32455;SDS011;18912;43.270;27.942;2023-11-19T18:58:38;34.97;;;17.60;;
32455;SDS011;18912;43.270;27.942;2023-11-19T19:01:03;33.40;;;16.23;;
32455;SDS011;18912;43.270;27.942;2023-11-19T19:03:29;31.52;;;16.17;;
32455;SDS011;18912;43.270;27.942;2023-11-19T19:05:56;31.92;;;14.90;;
32455;SDS011;18912;43.270;27.942;2023-11-19T19:08:23;23.98;;;12.35;;
32455;SDS011;18912;43.270;27.942;2023-11-19T19:10:48;22.63;;;11.47;;
32455;SDS011;18912;43.270;27.942;2023-11-19T19:13:14;25.87;;;12.63;;
32455;SDS011;18912;43.270;27.942;2023-11-19T19:15:39;26.93;;;12.73;;
32455;SDS011;18912;43.270;27.942;2023-11-19T19:18:05;26.33;;;12.87;;
32455;SDS011;18912;43.270;27.942;2023-11-19T19:20:31;24.02;;;12.50;;
32455;SDS011;18912;43.270;27.942;2023-11-19T19:22:56;25.55;;;12.45;;
32455;SDS011;18912;43.270;27.942;2023-11-19T19:25:22;24.07;;;12.23;;
32455;SDS011;18912;43.270;27.942;2023-11-19T19:27:53;28.52;;;14.52;;
32455;SDS011;18912;43.270;27.942;2023-11-19T19:30:22;35.20;;;17.27;;
32455;SDS011;18912;43.270;27.942;2023-11-19T19:35:14;30.60;;;15.90;;
32455;SDS011;18912;43.270;27.942;2023-11-19T19:37:39;26.70;;;14.40;;
32455;SDS011;18912;43.270;27.942;2023-11-19T19:40:05;27.47;;;15.17;;
32455;SDS011;18912;43.270;27.942;2023-11-19T19:42:31;24.10;;;13.05;;
32455;SDS011;18912;43.270;27.942;2023-11-19T19:44:57;28.13;;;14.27;;
32455;SDS011;18912;43.270;27.942;2023-11-19T19:47:22;24.13;;;12.20;;
32455;SDS011;18912;43.270;27.942;2023-11-19T19:49:48;26.17;;;11.90;;
32455;SDS011;18912;43.270;27.942;2023-11-19T19:52:13;25.43;;;12.73;;
32455;SDS011;18912;43.270;27.942;2023-11-19T19:54:38;27.57;;;12.97;;
32455;SDS011;18912;43.270;27.942;2023-11-19T19:57:04;31.77;;;15.10;;
32455;SDS011;18912;43.270;27.942;2023-11-19T19:59:30;23.97;;;12.47;;
32455;SDS011;18912;43.270;27.942;2023-11-19T20:01:58;28.50;;;13.48;;
32455;SDS011;18912;43.270;27.942;2023-11-19T20:04:24;26.17;;;13.07;;
32455;SDS011;18912;43.270;27.942;2023-11-19T20:06:50;21.55;;;12.45;;
32455;SDS011;18912;43.270;27.942;2023-11-19T20:09:17;42.22;;;17.95;;
32455;SDS011;18912;43.270;27.942;2023-11-19T20:11:43;29.17;;;15.20;;
32455;SDS011;18912;43.270;27.942;2023-11-19T20:14:12;26.02;;;13.68;;
32455;SDS011;18912;43.270;27.942;2023-11-19T20:16:37;30.07;;;13.70;;
32455;SDS011;18912;43.270;27.942;2023-11-19T20:19:03;34.03;;;13.33;;
32455;SDS011;18912;43.270;27.942;2023-11-19T20:21:28;31.40;;;14.43;;
32455;SDS011;18912;43.270;27.942;2023-11-19T20:23:54;30.80;;;12.93;;
32455;SDS011;18912;43.270;27.942;2023-11-19T20:26:20;44.50;;;21.23;;
32455;SDS011;18912;43.270;27.942;2023-11-19T20:28:47;21.83;;;11.60;;
32455;SDS011;18912;43.270;27.942;2023-11-19T20:31:13;25.48;;;12.65;;
32455;SDS011;18912;43.270;27.942;2023-11-19T20:33:39;22.42;;;11.25;;
32455;SDS011;18912;43.270;27.942;2023-11-19T20:36:05;24.97;;;13.30;;
32455;SDS011;18912;43.270;27.942;2023-11-19T20:38:31;26.00;;;12.88;;
32455;SDS011;18912;43.270;27.942;2023-11-19T20:40:57;25.90;;;13.67;;
32455;SDS011;18912;43.270;27.942;2023-11-19T20:43:24;33.60;;;15.95;;
32455;SDS011;18912;43.270;27.942;2023-11-19T20:45:49;28.20;;;14.60;;
32455;SDS011;18912;43.270;27.942;2023-11-19T20:48:16;31.40;;;16.15;;
32455;SDS011;18912;43.270;27.942;2023-11-19T20:50:41;25.37;;;13.17;;
32455;SDS011;18912;43.270;27.942;2023-11-19T20:53:07;28.20;;;13.65;;
32455;SDS011;18912;43.270;27.942;2023-11-19T20:55:36;30.70;;;14.13;;
32455;SDS011;18912;43.270;27.942;2023-11-19T20:58:03;35.45;;;16.77;;
32455;SDS011;18912;43.270;27.942;2023-11-19T21:00:30;34.35;;;15.65;;
32455;SDS011;18912;43.270;27.942;2023-11-19T21:02:56;26.58;;;13.32;;
32455;SDS011;18912;43.270;27.942;2023-11-19T21:05:23;30.73;;;14.77;;
32455;SDS011;18912;43.270;27.942;2023-11-19T21:07:48;29.33;;;14.80;;
32455;SDS011;18912;43.270;27.942;2023-11-19T21:10:14;37.47;;;20.33;;
32455;SDS011;18912;43.270;27.942;2023-11-19T21:12:40;39.35;;;20.10;;